Time;durP1;ratioP1;P1;durP2;ratioP2;P2;SDS_P1;SDS_P2;PMS_P1;PMS_P2;Temp;Humidity;BMP_temperature;BMP_pressure;BME280_temperature;BME280_humidity;BME280_pressure;Samples;Min_cycle;Max_cycle;Signal;HPM_P1;HPM_P2
2021/06/25 00:01:20;;;;;;;2.05;1.85;;;18.00;99.90;;;;;;5073509;28;20028;-75
2021/06/25 00:03:46;;;;;;;4.32;1.98;;;18.10;99.90;;;;;;5088497;28;20094;-76
2021/06/25 00:06:12;;;;;;;2.30;1.90;;;18.00;99.90;;;;;;5072518;28;20028;-76
2021/06/25 00:08:37;;;;;;;2.20;2.00;;;18.00;99.90;;;;;;5072695;28;20071;-75
2021/06/25 00:11:03;;;;;;;1.55;1.45;;;17.90;99.90;;;;;;5065006;28;20016;-75
2021/06/25 00:13:29;;;;;;;2.08;1.73;;;18.00;99.90;;;;;;5072948;28;20020;-75
2021/06/25 00:15:54;;;;;;;1.75;1.65;;;18.00;99.90;;;;;;5067811;28;20065;-75
2021/06/25 00:18:20;;;;;;;1.85;1.58;;;17.90;99.90;;;;;;5070906;28;20017;-75
2021/06/25 00:20:45;;;;;;;2.38;2.17;;;18.00;99.90;;;;;;5065862;28;20021;-75
2021/06/25 00:23:11;;;;;;;1.52;1.42;;;17.90;99.90;;;;;;5071788;28;20028;-74
2021/06/25 00:25:37;;;;;;;2.53;1.73;;;18.00;99.90;;;;;;5069735;28;20031;-76
2021/06/25 00:28:03;;;;;;;2.22;1.77;;;17.90;99.90;;;;;;5068405;28;20387;-74
2021/06/25 00:30:28;;;;;;;1.70;1.60;;;17.90;99.90;;;;;;5070124;28;20032;-75
2021/06/25 00:32:54;;;;;;;1.67;1.58;;;17.80;99.90;;;;;;5079620;28;20134;-75
2021/06/25 00:35:19;;;;;;;3.55;2.28;;;17.70;99.90;;;;;;5072346;28;20029;-74
2021/06/25 00:37:45;;;;;;;5.13;1.45;;;17.80;99.90;;;;;;5072072;28;20074;-75
2021/06/25 00:40:12;;;;;;;2.28;1.50;;;17.70;99.90;;;;;;5083647;28;20525;-76
2021/06/25 00:42:37;;;;;;;1.50;1.40;;;17.70;99.90;;;;;;5077029;28;20048;-75
2021/06/25 00:45:15;;;;;;;2.80;1.33;;;17.70;99.90;;;;;;5071853;28;20024;-74
2021/06/25 00:47:47;;;;;;;1.65;1.55;;;17.70;99.90;;;;;;5071242;28;20082;-75
2021/06/25 00:50:15;;;;;;;1.15;1.15;;;17.70;99.90;;;;;;5070824;28;20036;-75
2021/06/25 00:52:43;;;;;;;1.90;1.80;;;17.70;99.90;;;;;;5069512;28;20088;-74
2021/06/25 00:55:09;;;;;;;1.70;1.60;;;17.70;99.90;;;;;;5071935;28;20032;-74
2021/06/25 00:57:35;;;;;;;1.38;1.27;;;17.70;99.90;;;;;;5071535;28;20027;-74
2021/06/25 01:00:00;;;;;;;1.30;1.20;;;17.80;99.90;;;;;;5087104;28;20393;-74
2021/06/25 01:02:26;;;;;;;1.30;1.20;;;17.70;99.90;;;;;;5063640;28;20491;-75
2021/06/25 01:04:54;;;;;;;2.60;1.27;;;17.70;99.90;;;;;;5071242;28;20558;-75
2021/06/25 01:07:19;;;;;;;1.48;1.38;;;17.60;99.90;;;;;;5063886;28;20025;-74
2021/06/25 01:09:45;;;;;;;2.70;1.77;;;17.60;99.90;;;;;;5070368;28;20024;-74
2021/06/25 01:12:11;;;;;;;1.45;1.05;;;17.60;1.00;;;;;;5070653;28;20039;-74
2021/06/25 01:14:39;;;;;;;1.42;1.33;;;17.60;1.00;;;;;;5063529;28;20025;-75
2021/06/25 01:17:06;;;;;;;1.30;1.20;;;17.60;1.00;;;;;;5065970;28;20035;-75
2021/06/25 01:19:32;;;;;;;2.13;1.08;;;17.60;1.00;;;;;;5064310;28;20036;-75
2021/06/25 01:21:58;;;;;;;1.38;1.27;;;17.50;1.00;;;;;;5079540;28;20024;-75
2021/06/25 01:24:24;;;;;;;2.15;1.00;;;17.50;1.00;;;;;;5063426;28;20036;-75
2021/06/25 01:26:50;;;;;;;1.00;1.00;;;17.60;1.00;;;;;;5069808;28;20389;-76
2021/06/25 01:29:17;;;;;;;1.33;0.90;;;17.50;1.00;;;;;;5067451;28;20039;-75
2021/06/25 01:31:43;;;;;;;1.10;1.10;;;17.60;1.00;;;;;;5070639;28;20104;-74
2021/06/25 01:34:08;;;;;;;0.82;0.82;;;17.50;1.00;;;;;;5064374;28;20056;-75
2021/06/25 01:36:36;;;;;;;1.90;1.00;;;17.50;1.00;;;;;;5071732;28;20052;-75
2021/06/25 01:39:05;;;;;;;1.17;0.80;;;17.50;1.00;;;;;;5063128;28;20082;-75
2021/06/25 01:41:35;;;;;;;1.33;0.90;;;17.60;1.00;;;;;;5070117;28;20028;-74
2021/06/25 01:44:01;;;;;;;1.60;0.77;;;17.50;1.00;;;;;;5069062;28;20066;-75
2021/06/25 01:46:28;;;;;;;1.05;0.80;;;17.50;1.00;;;;;;5061365;28;20425;-74
2021/06/25 01:48:53;;;;;;;0.80;0.80;;;17.50;1.00;;;;;;5079373;28;20025;-75
2021/06/25 01:51:19;;;;;;;0.98;0.80;;;17.40;1.00;;;;;;5063287;28;20134;-75
2021/06/25 01:53:44;;;;;;;0.82;0.82;;;17.40;1.00;;;;;;5070815;28;20056;-75
2021/06/25 01:56:10;;;;;;;1.63;1.02;;;17.40;1.00;;;;;;5071209;28;20013;-74
2021/06/25 01:58:35;;;;;;;0.80;0.80;;;17.30;1.00;;;;;;5070710;28;20032;-75
2021/06/25 02:01:15;;;;;;;1.70;0.98;;;17.40;1.00;;;;;;5069052;28;20393;-75
2021/06/25 02:03:45;;;;;;;0.70;0.70;;;17.40;1.00;;;;;;5066143;28;20024;-75
2021/06/25 02:06:12;;;;;;;0.82;0.82;;;17.40;1.00;;;;;;5072978;28;20481;-75
2021/06/25 02:08:39;;;;;;;0.75;0.75;;;17.40;1.00;;;;;;5067077;28;20032;-76
2021/06/25 02:11:06;;;;;;;3.03;1.30;;;17.40;1.00;;;;;;5065753;28;20382;-74
2021/06/25 02:13:32;;;;;;;0.80;0.80;;;17.40;1.00;;;;;;5085954;28;20028;-75
2021/06/25 02:15:57;;;;;;;1.17;1.10;;;17.30;1.00;;;;;;5065404;28;20115;-75
2021/06/25 02:18:23;;;;;;;1.02;0.93;;;17.30;1.00;;;;;;5073554;28;20046;-74
2021/06/25 02:20:49;;;;;;;0.90;0.90;;;17.30;1.00;;;;;;5074327;28;20040;-74
2021/06/25 02:23:14;;;;;;;1.20;0.90;;;17.40;1.00;;;;;;5069599;28;20439;-75
2021/06/25 02:25:40;;;;;;;1.63;1.10;;;17.30;1.00;;;;;;5086893;28;20024;-76
2021/06/25 02:28:05;;;;;;;1.38;0.80;;;17.30;1.00;;;;;;5071730;28;20023;-73
2021/06/25 02:30:31;;;;;;;1.27;0.80;;;17.20;1.00;;;;;;5074033;28;20119;-75
2021/06/25 02:32:57;;;;;;;1.05;0.63;;;17.30;1.00;;;;;;5065994;28;20092;-74
2021/06/25 02:35:22;;;;;;;0.55;0.55;;;17.20;1.00;;;;;;5065200;28;20017;-75
2021/06/25 02:37:48;;;;;;;0.68;0.68;;;17.20;1.00;;;;;;5073239;28;20024;-75
2021/06/25 02:40:14;;;;;;;1.15;0.98;;;17.20;1.00;;;;;;5065980;28;20028;-75
2021/06/25 02:42:40;;;;;;;1.88;0.70;;;17.20;1.00;;;;;;5074432;28;20025;-74
2021/06/25 02:45:07;;;;;;;0.77;0.77;;;17.20;1.00;;;;;;5066430;28;20020;-76
2021/06/25 02:47:34;;;;;;;1.27;0.93;;;17.10;1.00;;;;;;5072884;28;20039;-75
2021/06/25 02:50:03;;;;;;;0.50;0.50;;;17.10;1.00;;;;;;5070800;28;20391;-75
2021/06/25 02:52:28;;;;;;;0.75;0.70;;;17.20;1.00;;;;;;5070138;28;20017;-75
2021/06/25 02:54:54;;;;;;;2.63;0.70;;;17.10;1.00;;;;;;5073796;28;20020;-76
2021/06/25 02:57:19;;;;;;;1.83;0.70;;;17.20;1.00;;;;;;5066311;28;20017;-75
2021/06/25 02:59:45;;;;;;;0.75;0.70;;;17.30;1.00;;;;;;5070326;28;20027;-75
2021/06/25 03:02:11;;;;;;;3.60;0.60;;;17.20;1.00;;;;;;5067981;28;20104;-75
2021/06/25 03:04:36;;;;;;;0.75;0.65;;;17.20;1.00;;;;;;5069904;28;20078;-76
2021/06/25 03:07:02;;;;;;;1.42;0.70;;;17.20;1.00;;;;;;5081361;28;20512;-75
2021/06/25 03:09:27;;;;;;;2.42;0.70;;;17.30;1.00;;;;;;5067134;28;20060;-76
2021/06/25 03:11:53;;;;;;;0.75;0.70;;;17.20;1.00;;;;;;5072803;28;20436;-77
2021/06/25 03:14:19;;;;;;;1.50;0.63;;;17.30;1.00;;;;;;5068348;28;20047;-75
2021/06/25 03:16:44;;;;;;;1.75;0.75;;;17.20;1.00;;;;;;5086595;28;20027;-74
2021/06/25 03:19:10;;;;;;;0.90;0.80;;;17.20;1.00;;;;;;5069805;28;20031;-75
2021/06/25 03:21:36;;;;;;;1.20;0.70;;;17.10;1.00;;;;;;5089055;28;20025;-75
2021/06/25 03:24:01;;;;;;;1.85;0.90;;;17.00;1.00;;;;;;5072160;28;20082;-74
2021/06/25 03:26:27;;;;;;;0.88;0.65;;;17.10;1.00;;;;;;5057757;28;20490;-75
2021/06/25 03:28:53;;;;;;;1.13;0.65;;;17.00;1.00;;;;;;5064003;28;20040;-75
2021/06/25 03:31:21;;;;;;;4.53;1.50;;;17.00;1.00;;;;;;5072216;28;20025;-74
2021/06/25 03:33:47;;;;;;;2.03;1.00;;;17.10;1.00;;;;;;5073681;28;20020;-75
2021/06/25 03:36:12;;;;;;;1.15;0.93;;;17.10;1.00;;;;;;5084750;28;20021;-76
2021/06/25 03:38:38;;;;;;;1.08;0.80;;;17.10;1.00;;;;;;5068947;28;20409;-76
2021/06/25 03:41:03;;;;;;;3.40;0.70;;;17.10;1.00;;;;;;5054803;28;20485;-75
2021/06/25 03:43:29;;;;;;;1.38;1.30;;;17.10;1.00;;;;;;5062090;28;20035;-76
2021/06/25 03:45:55;;;;;;;1.38;0.80;;;17.10;1.00;;;;;;5062721;28;20398;-75
2021/06/25 03:48:20;;;;;;;5.80;0.70;;;17.20;1.00;;;;;;5072737;28;20025;-75
2021/06/25 03:50:46;;;;;;;0.80;0.80;;;17.20;1.00;;;;;;5072566;28;20505;-74
2021/06/25 03:53:12;;;;;;;0.80;0.70;;;17.20;1.00;;;;;;5065880;28;20033;-74
2021/06/25 03:56:09;;;;;;;2.05;0.90;;;17.20;1.00;;;;;;5069645;28;20474;-75
2021/06/25 03:58:23;;;;;;;0.60;0.60;;;17.10;1.00;;;;;;5067140;28;20028;-77
2021/06/25 04:00:48;;;;;;;1.00;0.88;;;17.10;1.00;;;;;;5066416;28;20107;-74
2021/06/25 04:03:14;;;;;;;1.95;0.80;;;17.10;1.00;;;;;;5066694;28;20024;-75
2021/06/25 04:05:40;;;;;;;1.25;0.80;;;17.00;1.00;;;;;;5073528;28;20048;-76
2021/06/25 04:08:06;;;;;;;1.05;0.90;;;17.10;1.00;;;;;;5063783;28;20029;-75
2021/06/25 04:10:32;;;;;;;0.70;0.70;;;17.00;1.00;;;;;;5073225;28;20036;-74
2021/06/25 04:12:57;;;;;;;1.10;0.98;;;16.90;1.00;;;;;;5071947;28;20494;-76
2021/06/25 04:15:23;;;;;;;3.50;3.25;;;16.80;1.00;;;;;;5058752;28;20149;-76
2021/06/25 04:17:48;;;;;;;1.10;1.00;;;16.80;1.00;;;;;;5069000;28;20048;-75
2021/06/25 04:20:15;;;;;;;1.20;1.02;;;16.80;1.00;;;;;;5071120;28;20040;-75
2021/06/25 04:22:41;;;;;;;2.35;0.82;;;16.80;1.00;;;;;;5063742;28;20482;-76
2021/06/25 04:25:07;;;;;;;1.48;1.10;;;16.70;1.00;;;;;;5065237;28;20029;-75
2021/06/25 04:27:33;;;;;;;2.95;1.10;;;16.70;1.00;;;;;;5068942;28;20024;-74
2021/06/25 04:29:58;;;;;;;1.05;0.80;;;16.80;1.00;;;;;;5070517;28;20090;-75
2021/06/25 04:32:24;;;;;;;3.80;1.02;;;16.80;1.00;;;;;;5066820;28;20339;-76
2021/06/25 04:34:49;;;;;;;2.15;0.80;;;16.70;1.00;;;;;;5085570;28;20024;-75
2021/06/25 04:37:15;;;;;;;0.90;0.90;;;16.70;1.00;;;;;;5083400;28;20501;-76
2021/06/25 04:39:41;;;;;;;1.10;0.95;;;16.70;1.00;;;;;;5070060;28;20058;-75
2021/06/25 04:42:09;;;;;;;2.08;1.20;;;16.70;1.00;;;;;;5068593;28;20114;-75
2021/06/25 04:44:36;;;;;;;3.05;1.20;;;16.70;1.00;;;;;;5068521;28;20577;-74
2021/06/25 04:47:02;;;;;;;2.50;0.85;;;16.70;1.00;;;;;;5071058;28;20028;-76
2021/06/25 04:49:28;;;;;;;1.95;1.15;;;16.70;1.00;;;;;;5071959;28;20036;-74
2021/06/25 04:51:53;;;;;;;1.30;1.00;;;16.70;1.00;;;;;;5062585;28;20029;-77
2021/06/25 04:54:19;;;;;;;2.85;1.38;;;16.80;1.00;;;;;;5058871;28;20119;-77
2021/06/25 04:56:44;;;;;;;0.90;0.90;;;16.80;1.00;;;;;;5070344;28;20066;-77
2021/06/25 04:59:10;;;;;;;1.52;0.88;;;16.90;1.00;;;;;;5071453;28;20032;-75
2021/06/25 05:01:35;;;;;;;1.20;1.10;;;16.80;1.00;;;;;;5068485;28;20081;-76
2021/06/25 05:04:01;;;;;;;1.20;1.10;;;16.80;1.00;;;;;;5068364;28;20033;-78
2021/06/25 05:06:26;;;;;;;1.75;1.55;;;16.90;1.00;;;;;;5066996;28;20040;-77
2021/06/25 05:08:52;;;;;;;2.13;1.10;;;17.00;1.00;;;;;;5070277;28;20025;-77
2021/06/25 05:11:17;;;;;;;1.67;1.20;;;16.90;1.00;;;;;;5067049;28;20074;-76
2021/06/25 05:13:43;;;;;;;1.10;1.00;;;17.00;1.00;;;;;;5068033;28;20104;-76
2021/06/25 05:16:09;;;;;;;2.17;1.92;;;17.00;1.00;;;;;;5064010;28;20382;-76
2021/06/25 05:18:34;;;;;;;2.70;1.10;;;17.10;1.00;;;;;;5069622;28;20028;-77
2021/06/25 05:21:00;;;;;;;1.45;1.35;;;17.20;1.00;;;;;;5080191;28;20013;-76
2021/06/25 05:23:25;;;;;;;2.10;1.20;;;17.30;1.00;;;;;;5070905;28;20062;-76
2021/06/25 05:25:51;;;;;;;1.15;1.05;;;17.30;1.00;;;;;;5069844;28;20017;-75
2021/06/25 05:28:16;;;;;;;2.85;2.55;;;17.40;1.00;;;;;;5063591;28;20513;-77
2021/06/25 05:30:43;;;;;;;2.88;1.50;;;17.50;1.00;;;;;;5072219;28;20027;-76
2021/06/25 05:33:08;;;;;;;2.53;1.15;;;17.50;1.00;;;;;;5086490;28;20008;-77
2021/06/25 05:35:35;;;;;;;1.95;1.60;;;17.50;1.00;;;;;;5084054;28;20047;-76
2021/06/25 05:38:03;;;;;;;2.08;0.90;;;17.50;1.00;;;;;;5063011;28;20020;-76
2021/06/25 05:40:28;;;;;;;9.45;1.83;;;17.50;1.00;;;;;;5072027;28;20017;-76
2021/06/25 05:42:55;;;;;;;4.40;1.75;;;17.60;1.00;;;;;;5075082;28;20028;-77
2021/06/25 05:45:21;;;;;;;1.88;1.05;;;17.60;1.00;;;;;;5069703;28;20036;-76
2021/06/25 05:47:47;;;;;;;1.48;1.38;;;17.50;1.00;;;;;;5088352;28;20023;-77
2021/06/25 05:50:13;;;;;;;3.28;1.70;;;17.40;1.00;;;;;;5067302;28;20028;-77
2021/06/25 05:52:39;;;;;;;1.40;1.10;;;17.40;1.00;;;;;;5075131;28;20048;-77
2021/06/25 05:55:05;;;;;;;1.65;1.02;;;17.30;1.00;;;;;;5067018;28;20052;-76
2021/06/25 05:57:31;;;;;;;2.13;1.10;;;17.40;1.00;;;;;;5074558;28;20020;-77
2021/06/25 05:59:56;;;;;;;2.45;1.00;;;17.30;1.00;;;;;;5070640;28;20432;-77
2021/06/25 06:02:22;;;;;;;2.28;1.15;;;17.20;1.00;;;;;;5089976;28;20064;-77
2021/06/25 06:04:48;;;;;;;1.40;1.00;;;17.20;1.00;;;;;;5073673;28;20056;-77
2021/06/25 06:07:13;;;;;;;1.75;0.80;;;17.00;1.00;;;;;;5068038;28;20028;-76
2021/06/25 06:09:39;;;;;;;2.38;1.10;;;17.00;1.00;;;;;;5067161;28;20025;-77
2021/06/25 06:12:05;;;;;;;2.88;1.00;;;16.90;1.00;;;;;;5075070;28;20035;-77
2021/06/25 06:14:31;;;;;;;1.73;1.20;;;17.00;1.00;;;;;;5068081;28;20029;-77
2021/06/25 06:16:57;;;;;;;0.90;0.90;;;17.10;1.00;;;;;;5061151;28;20028;-76
2021/06/25 06:19:22;;;;;;;1.20;1.10;;;17.00;1.00;;;;;;5072999;28;20416;-77
2021/06/25 06:32:59;;;;;;;1.52;1.13;;;17.30;1.00;;;;;;5074936;28;20095;-77
2021/06/25 06:35:25;;;;;;;1.33;1.10;;;17.80;1.00;;;;;;5090397;28;20020;-77
2021/06/25 06:37:52;;;;;;;1.92;1.00;;;17.80;1.00;;;;;;5065304;28;20031;-76
2021/06/25 06:40:19;;;;;;;1.52;1.10;;;17.80;1.00;;;;;;5084142;28;20024;-76
2021/06/25 06:42:47;;;;;;;1.73;1.40;;;17.70;1.00;;;;;;5074396;28;20024;-76
2021/06/25 06:45:15;;;;;;;1.23;1.13;;;17.70;1.00;;;;;;5073289;28;20032;-78
2021/06/25 06:47:41;;;;;;;1.40;1.30;;;17.80;1.00;;;;;;5084907;28;20056;-75
2021/06/25 06:50:06;;;;;;;1.20;1.10;;;17.80;1.00;;;;;;5071711;28;20529;-77
2021/06/25 06:52:32;;;;;;;1.42;1.30;;;17.90;1.00;;;;;;5073173;28;20516;-78
2021/06/25 06:54:58;;;;;;;1.20;1.10;;;17.80;1.00;;;;;;5073792;28;20028;-78
2021/06/25 06:57:23;;;;;;;1.40;1.13;;;17.70;1.00;;;;;;5064807;28;20028;-77
2021/06/25 06:59:49;;;;;;;1.92;1.10;;;17.60;1.00;;;;;;5066104;28;20025;-76
2021/06/25 07:02:14;;;;;;;2.85;1.10;;;17.70;1.00;;;;;;5072659;28;20028;-77
2021/06/25 07:04:40;;;;;;;1.73;1.33;;;17.80;1.00;;;;;;5074321;28;20036;-76
2021/06/25 07:07:05;;;;;;;1.83;1.58;;;17.80;1.00;;;;;;5056545;28;20486;-77
2021/06/25 07:09:31;;;;;;;1.38;1.27;;;17.90;1.00;;;;;;5074061;28;20496;-77
2021/06/25 07:11:57;;;;;;;1.67;1.38;;;17.70;1.00;;;;;;5073413;28;20024;-77
2021/06/25 07:14:22;;;;;;;1.33;1.23;;;17.60;1.00;;;;;;5059225;28;20025;-78
2021/06/25 07:16:48;;;;;;;1.60;1.50;;;17.80;1.00;;;;;;5085735;28;20119;-76
2021/06/25 07:19:15;;;;;;;1.92;1.83;;;17.70;1.00;;;;;;5083190;28;20075;-77
2021/06/25 07:21:41;;;;;;;1.75;1.60;;;17.70;1.00;;;;;;5072854;28;20028;-76
2021/06/25 07:24:07;;;;;;;1.88;1.77;;;17.80;1.00;;;;;;5073608;28;20032;-77
2021/06/25 07:26:33;;;;;;;1.77;1.67;;;17.50;1.00;;;;;;5058142;28;20031;-77
2021/06/25 07:28:58;;;;;;;2.97;2.35;;;17.40;1.00;;;;;;5078301;28;20084;-77
2021/06/25 07:31:24;;;;;;;2.90;2.50;;;17.30;1.00;;;;;;5084441;28;20397;-76
2021/06/25 07:33:50;;;;;;;5.57;3.25;;;17.30;1.00;;;;;;5074063;28;20557;-77
2021/06/25 07:36:17;;;;;;;3.97;2.78;;;17.40;1.00;;;;;;5080589;28;20032;-76
2021/06/25 07:38:43;;;;;;;3.15;2.83;;;17.50;1.00;;;;;;5086346;28;20084;-75
2021/06/25 07:41:08;;;;;;;3.05;2.75;;;17.50;1.00;;;;;;5072196;28;20056;-77
2021/06/25 07:43:34;;;;;;;3.38;2.90;;;17.60;1.00;;;;;;5061098;28;20474;-76
2021/06/25 07:45:59;;;;;;;3.42;2.78;;;17.60;1.00;;;;;;5069388;28;20025;-77
2021/06/25 07:48:25;;;;;;;2.95;2.70;;;17.70;1.00;;;;;;5058359;28;20017;-77
2021/06/25 07:50:50;;;;;;;3.70;2.70;;;17.60;1.00;;;;;;5064889;28;20036;-76
2021/06/25 07:53:16;;;;;;;2.47;2.28;;;17.80;1.00;;;;;;5073445;28;20017;-77
2021/06/25 07:55:44;;;;;;;2.70;2.50;;;17.80;1.00;;;;;;5069118;28;20075;-76
2021/06/25 07:58:12;;;;;;;4.32;2.67;;;18.00;1.00;;;;;;5071951;28;20023;-77
2021/06/25 08:00:38;;;;;;;4.28;2.80;;;18.00;1.00;;;;;;5065179;28;20047;-76
2021/06/25 08:03:04;;;;;;;2.95;2.75;;;18.20;1.00;;;;;;5076694;28;20477;-77
2021/06/25 08:05:30;;;;;;;2.92;2.63;;;18.30;1.00;;;;;;5065535;28;20090;-76
2021/06/25 08:07:55;;;;;;;4.03;2.78;;;18.50;1.00;;;;;;5071843;28;20024;-76
2021/06/25 08:10:21;;;;;;;5.50;2.60;;;18.60;1.00;;;;;;5064818;28;20485;-76
2021/06/25 08:12:46;;;;;;;3.53;3.03;;;18.70;1.00;;;;;;5067866;28;20485;-76
2021/06/25 08:15:12;;;;;;;3.35;3.00;;;18.70;1.00;;;;;;5072331;28;20397;-76
2021/06/25 08:17:38;;;;;;;2.95;2.70;;;18.90;1.00;;;;;;5073097;28;20016;-77
2021/06/25 08:20:05;;;;;;;3.03;2.83;;;18.90;1.00;;;;;;5073533;28;20447;-77
2021/06/25 08:22:31;;;;;;;5.40;3.08;;;18.90;1.00;;;;;;5065935;28;20025;-78
2021/06/25 08:24:56;;;;;;;2.70;2.50;;;18.90;1.00;;;;;;5069583;28;20104;-78
2021/06/25 08:27:22;;;;;;;3.40;3.10;;;19.00;1.00;;;;;;5058710;28;20029;-78
2021/06/25 08:29:48;;;;;;;2.88;2.67;;;18.90;1.00;;;;;;5067062;28;20028;-78
2021/06/25 08:32:13;;;;;;;2.85;2.65;;;18.60;1.00;;;;;;5058843;28;20498;-78
2021/06/25 08:34:39;;;;;;;3.28;3.00;;;18.70;1.00;;;;;;5064749;28;20036;-78
2021/06/25 08:37:05;;;;;;;3.22;2.92;;;18.60;1.00;;;;;;5065200;28;20470;-78
2021/06/25 08:39:30;;;;;;;3.42;2.75;;;18.50;1.00;;;;;;5072193;28;20036;-77
2021/06/25 08:42:04;;;;;;;2.42;2.22;;;18.50;1.00;;;;;;5062164;28;20401;-78
2021/06/25 08:44:38;;;;;;;3.15;2.90;;;18.40;1.00;;;;;;5062480;28;20035;-77
2021/06/25 08:47:08;;;;;;;2.15;2.03;;;18.60;1.00;;;;;;5064298;28;20103;-77
2021/06/25 08:49:37;;;;;;;1.77;1.67;;;18.80;1.00;;;;;;5072303;28;20028;-78
2021/06/25 08:52:04;;;;;;;1.88;1.77;;;18.70;1.00;;;;;;5084973;28;20032;-78
2021/06/25 08:54:30;;;;;;;1.70;1.60;;;18.90;1.00;;;;;;5083853;28;20031;-77
2021/06/25 08:56:57;;;;;;;1.67;1.58;;;18.80;99.90;;;;;;5062854;28;20568;-79
2021/06/25 08:59:23;;;;;;;2.42;1.58;;;18.60;1.00;;;;;;5071691;28;20028;-79
2021/06/25 09:01:50;;;;;;;1.67;1.58;;;18.50;1.00;;;;;;5073244;28;20099;-77
2021/06/25 09:04:38;;;;;;;1.65;1.55;;;18.20;1.00;;;;;;5071673;28;20052;-77
2021/06/25 09:07:07;;;;;;;5.07;1.70;;;18.00;1.00;;;;;;5062776;28;20397;-77
2021/06/25 09:09:47;;;;;;;3.20;1.70;;;17.90;1.00;;;;;;5063303;28;20048;-77
2021/06/25 09:12:15;;;;;;;;;;;18.00;1.00;;;;;;5063853;28;20044;-77
2021/06/25 09:14:57;;;;;;;2.03;1.90;;;17.90;1.00;;;;;;5071757;28;19909;-78
2021/06/25 09:17:23;;;;;;;2.60;2.40;;;17.90;1.00;;;;;;5071159;28;20052;-78
2021/06/25 09:19:49;;;;;;;2.05;1.95;;;17.80;1.00;;;;;;5064053;28;20054;-77
2021/06/25 09:22:14;;;;;;;2.60;2.38;;;17.80;1.00;;;;;;5072580;28;20056;-78
2021/06/25 09:24:40;;;;;;;2.92;2.20;;;17.70;1.00;;;;;;5070387;28;20035;-78
2021/06/25 09:27:07;;;;;;;2.63;2.42;;;17.60;1.00;;;;;;5070537;28;20031;-77
2021/06/25 09:29:36;;;;;;;2.60;2.40;;;17.70;1.00;;;;;;5056239;28;20059;-79
2021/06/25 09:32:10;;;;;;;2.60;2.40;;;17.70;1.00;;;;;;5068611;28;20075;-78
2021/06/25 09:34:48;;;;;;;4.18;2.28;;;17.70;1.00;;;;;;5067622;28;20055;-77
2021/06/25 09:37:16;;;;;;;2.72;2.53;;;17.70;1.00;;;;;;5063851;28;20021;-78
2021/06/25 09:39:56;;;;;;;3.10;2.80;;;18.00;1.00;;;;;;5070266;28;20055;-78
2021/06/25 09:42:22;;;;;;;3.05;2.58;;;18.00;1.00;;;;;;5072709;28;20029;-76
2021/06/25 09:44:58;;;;;;;2.83;2.63;;;18.30;1.00;;;;;;5077530;28;20032;-78
2021/06/25 09:47:30;;;;;;;2.92;2.63;;;18.30;1.00;;;;;;5091667;28;20036;-78
2021/06/25 09:50:08;;;;;;;3.53;3.22;;;18.40;1.00;;;;;;5069445;28;20566;-77
2021/06/25 09:52:57;;;;;;;3.72;3.42;;;18.50;1.00;;;;;;5062579;28;20028;-77
2021/06/25 09:55:49;;;;;;;3.75;3.45;;;18.60;1.00;;;;;;5061647;28;20029;-77
2021/06/25 10:04:06;;;;;;;4.38;3.95;;;18.40;1.00;;;;;;5063415;28;20047;-77
2021/06/25 10:06:34;;;;;;;5.25;4.75;;;18.50;1.00;;;;;;5065256;28;20052;-78
2021/06/25 10:09:00;;;;;;;5.75;4.68;;;18.20;1.00;;;;;;5084318;28;20052;-79
2021/06/25 10:11:28;;;;;;;5.93;5.43;;;18.40;1.00;;;;;;5065280;28;20028;-77
2021/06/25 10:13:55;;;;;;;6.07;5.57;;;18.50;1.00;;;;;;5086905;28;20082;-76
2021/06/25 10:16:22;;;;;;;6.03;5.40;;;18.30;1.00;;;;;;5069695;28;20033;-76
2021/06/25 10:18:50;;;;;;;6.45;5.22;;;18.20;1.00;;;;;;5071380;28;20070;-77
2021/06/25 10:21:21;;;;;;;7.75;5.63;;;18.10;1.00;;;;;;5070846;28;20539;-78
2021/06/25 10:23:54;;;;;;;6.18;5.68;;;18.20;1.00;;;;;;5071742;28;20016;-77
2021/06/25 10:26:21;;;;;;;7.45;5.85;;;18.30;1.00;;;;;;5072058;28;20489;-78
2021/06/25 10:28:48;;;;;;;6.97;6.38;;;18.30;1.00;;;;;;5075239;28;20020;-76
2021/06/25 10:31:16;;;;;;;6.03;5.53;;;18.30;1.00;;;;;;5071399;28;20033;-76
2021/06/25 10:33:43;;;;;;;6.45;5.85;;;18.30;1.00;;;;;;5063786;28;20063;-77
2021/06/25 10:36:11;;;;;;;6.78;6.18;;;18.30;1.00;;;;;;5062528;28;20036;-77
2021/06/25 10:38:43;;;;;;;7.20;5.70;;;18.70;1.00;;;;;;5053698;28;20036;-77
2021/06/25 10:41:14;;;;;;;6.53;5.93;;;18.90;1.00;;;;;;5075086;28;20069;-78
2021/06/25 10:43:52;;;;;;;6.40;5.90;;;18.80;1.00;;;;;;5076228;28;20024;-77
2021/06/25 10:46:28;;;;;;;7.00;6.43;;;18.90;1.00;;;;;;5062405;28;20506;-78
2021/06/25 10:48:58;;;;;;;9.13;7.43;;;18.80;99.90;;;;;;5072551;28;20028;-78
2021/06/25 10:51:31;;;;;;;8.15;7.35;;;18.70;1.00;;;;;;5074748;28;20027;-78
2021/06/25 10:54:09;;;;;;;8.85;8.00;;;18.70;1.00;;;;;;5074257;28;20017;-77
2021/06/25 10:56:35;;;;;;;8.85;7.95;;;18.60;1.00;;;;;;5054055;28;20048;-75
2021/06/25 10:59:19;;;;;;;9.00;8.10;;;18.70;1.00;;;;;;5070349;28;20512;-77
2021/06/25 11:01:57;;;;;;;9.75;8.75;;;18.50;1.00;;;;;;5071035;28;20083;-76
2021/06/25 11:04:39;;;;;;;10.90;9.57;;;18.40;1.00;;;;;;5059547;28;20442;-76
2021/06/25 11:07:11;;;;;;;9.88;8.90;;;18.60;1.00;;;;;;5068467;28;20052;-77
2021/06/25 11:09:55;;;;;;;11.80;9.00;;;18.30;1.00;;;;;;5064615;28;20055;-76
2021/06/25 11:12:28;;;;;;;9.75;8.85;;;18.40;1.00;;;;;;5069635;28;20028;-77
2021/06/25 11:15:17;;;;;;;9.98;9.07;;;18.60;1.00;;;;;;5061515;28;20021;-77
2021/06/25 11:17:53;;;;;;;15.48;8.52;;;18.80;1.00;;;;;;5073751;28;20036;-75
2021/06/25 11:20:28;;;;;;;9.15;8.25;;;18.70;1.00;;;;;;5073343;28;20032;-75
2021/06/25 11:23:01;;;;;;;10.07;9.10;;;18.50;1.00;;;;;;5065378;28;20395;-77
2021/06/25 11:25:44;;;;;;;10.55;9.55;;;18.70;1.00;;;;;;5068717;28;20487;-76
2021/06/25 11:28:16;;;;;;;9.95;9.05;;;19.10;1.00;;;;;;5056891;28;20475;-76
2021/06/25 11:31:22;;;;;;;10.60;9.43;;;19.20;1.00;;;;;;5072256;28;20086;-79
2021/06/25 11:33:47;;;;;;;10.05;9.10;;;19.30;1.00;;;;;;5065490;28;20494;-76
2021/06/25 11:36:13;;;;;;;10.10;9.20;;;19.30;1.00;;;;;;5075830;28;20062;-76
2021/06/25 11:38:55;;;;;;;9.85;8.90;;;19.40;99.90;;;;;;5071985;28;20024;-78
2021/06/25 11:41:28;;;;;;;8.80;7.93;;;19.40;99.90;;;;;;5074367;28;20028;-79
2021/06/25 11:43:58;;;;;;;10.32;9.32;;;19.50;99.90;;;;;;5074740;28;20366;-76
2021/06/25 11:46:24;;;;;;;9.40;8.60;;;19.40;99.90;;;;;;5097859;28;20024;-76
2021/06/25 11:48:50;;;;;;;10.15;9.15;;;19.50;99.90;;;;;;5077843;28;20047;-76
2021/06/25 11:51:19;;;;;;;9.75;8.80;;;19.60;99.90;;;;;;5075545;28;20016;-77
2021/06/25 11:53:46;;;;;;;9.80;8.93;;;19.60;99.90;;;;;;5076238;28;20012;-76
2021/06/25 11:56:23;;;;;;;9.98;8.95;;;19.50;99.90;;;;;;5075706;28;20032;-77
2021/06/25 11:58:55;;;;;;;12.43;9.25;;;19.30;99.90;;;;;;5073682;28;20033;-77
2021/06/25 12:01:21;;;;;;;10.15;9.15;;;19.50;99.90;;;;;;5068445;28;20511;-79
2021/06/25 12:03:46;;;;;;;10.18;9.18;;;19.70;99.90;;;;;;5065466;28;20025;-77
2021/06/25 12:06:12;;;;;;;9.90;9.00;;;19.90;99.90;;;;;;5059560;28;20064;-78
2021/06/25 12:09:00;;;;;;;9.73;8.82;;;20.20;99.90;;;;;;5070122;28;20371;-76
2021/06/25 12:11:28;;;;;;;7.97;7.28;;;20.10;99.90;;;;;;5068505;28;20046;-77
2021/06/25 12:14:05;;;;;;;8.25;7.45;;;20.20;99.90;;;;;;5062501;28;20025;-77
2021/06/25 12:16:32;;;;;;;8.68;7.88;;;20.00;99.90;;;;;;5067138;28;20040;-76
2021/06/25 12:19:00;;;;;;;7.97;7.30;;;20.20;99.90;;;;;;5072371;28;20025;-76
2021/06/25 12:21:27;;;;;;;7.32;6.70;;;20.30;99.90;;;;;;5072393;28;20082;-77
2021/06/25 12:23:56;;;;;;;6.20;5.60;;;20.40;99.90;;;;;;5074951;28;20031;-77
2021/06/25 12:26:27;;;;;;;6.45;5.53;;;20.50;99.90;;;;;;5071718;28;20497;-76
2021/06/25 12:29:00;;;;;;;5.00;4.47;;;20.60;99.90;;;;;;5072296;28;20037;-76
2021/06/25 12:31:33;;;;;;;5.18;4.70;;;20.60;99.90;;;;;;5059891;28;20033;-77
2021/06/25 12:34:12;;;;;;;4.70;4.30;;;20.60;99.90;;;;;;5070798;28;20036;-77
2021/06/25 12:36:38;;;;;;;5.05;4.65;;;20.70;99.90;;;;;;5072108;28;20047;-77
2021/06/25 12:39:06;;;;;;;4.28;3.88;;;20.50;99.90;;;;;;5068571;28;20025;-76
2021/06/25 12:41:39;;;;;;;3.78;3.47;;;20.70;99.90;;;;;;5069259;28;20692;-76
2021/06/25 12:44:05;;;;;;;3.92;3.63;;;20.70;99.90;;;;;;5071900;28;20028;-76
2021/06/25 12:46:30;;;;;;;3.25;2.95;;;20.20;99.90;;;;;;5072097;28;20401;-76
2021/06/25 12:49:00;;;;;;;3.55;3.25;;;19.70;99.90;;;;;;5064637;28;20036;-77
2021/06/25 12:51:28;;;;;;;3.67;3.38;;;19.60;99.90;;;;;;5071028;28;20028;-78
2021/06/25 12:53:59;;;;;;;6.50;3.60;;;19.80;99.90;;;;;;5072051;28;20055;-77
2021/06/25 12:56:27;;;;;;;3.63;3.33;;;19.70;99.90;;;;;;5073130;28;20021;-78
2021/06/25 12:59:04;;;;;;;4.75;4.35;;;19.60;99.90;;;;;;5072078;28;20032;-77
2021/06/25 13:01:41;;;;;;;3.85;3.55;;;19.80;99.90;;;;;;5057770;28;20026;-76
2021/06/25 13:04:30;;;;;;;4.57;4.18;;;20.20;99.90;;;;;;5067381;28;20032;-76
2021/06/25 13:06:58;;;;;;;4.22;3.80;;;20.50;99.90;;;;;;5065150;28;20029;-77
2021/06/25 13:09:34;;;;;;;5.15;4.72;;;21.00;99.90;;;;;;5085936;28;20028;-78
2021/06/25 13:12:13;;;;;;;6.05;4.35;;;21.10;99.90;;;;;;5067388;28;20062;-77
2021/06/25 13:14:43;;;;;;;4.88;4.47;;;21.20;1.00;;;;;;5062336;28;20025;-76
2021/06/25 13:17:10;;;;;;;5.53;5.13;;;21.40;1.00;;;;;;5068017;28;20025;-78